FDB2MF LTFM-OMDB
Flight info
| Callsign | FDB2MF |
|---|---|
| Flight time | 4h 3m |
| Altitude | 27000 |
| Route | VICEN1H/18 VICEN T57 VEVUD/N0448F370 UT341 BAG UL614 OTKEP UM688 RATVO/N0451F390 M688 SIDAD P975 SESRU M677 VUTEB |
| Aircraft | B738/M-SDE1E2E3FGHIJ1LM3ORVWXYZ/HB1 |
Departure
| Time | 2026-04-26 17:35 |
|---|---|
| Airport | İstanbul Airport (LTFM) |
Arrival
| Time | 2026-04-26 21:39 |
|---|---|
| Airport | Dubai International Airport (OMDB) |
| Time | Latitude | Longitude | Altitude | Speed | Heading |
|---|---|---|---|---|---|
| 2026-04-26 16:55 | 41.26376 | 28.74684 | 332 ft | 0 kts | 108° |
| 2026-04-26 17:20 | 41.26379 | 28.74673 | 332 ft | 2 kts | 108° |
| 2026-04-26 17:20 | 41.26382 | 28.74660 | 332 ft | 2 kts | 108° |
| 2026-04-26 17:20 | 41.26388 | 28.74635 | 332 ft | 2 kts | 108° |
| 2026-04-26 17:20 | 41.26393 | 28.74616 | 332 ft | 2 kts | 109° |
| 2026-04-26 17:21 | 41.26400 | 28.74599 | 333 ft | 2 kts | 132° |
| 2026-04-26 17:21 | 41.26411 | 28.74586 | 333 ft | 2 kts | 149° |
| 2026-04-26 17:21 | 41.26425 | 28.74578 | 333 ft | 2 kts | 167° |
| 2026-04-26 17:21 | 41.26440 | 28.74576 | 332 ft | 2 kts | 184° |
| 2026-04-26 17:22 | 41.26454 | 28.74580 | 332 ft | 2 kts | 200° |
| 2026-04-26 17:22 | 41.26469 | 28.74586 | 332 ft | 2 kts | 195° |
| 2026-04-26 17:22 | 41.26475 | 28.74589 | 332 ft | 0 kts | 196° |
| 2026-04-26 17:25 | 41.26474 | 28.74588 | 332 ft | 0 kts | 196° |
| 2026-04-26 17:25 | 41.26438 | 28.74574 | 332 ft | 8 kts | 197° |
| 2026-04-26 17:25 | 41.26402 | 28.74527 | 332 ft | 6 kts | 257° |
| 2026-04-26 17:25 | 41.26423 | 28.74471 | 332 ft | 9 kts | 338° |
| 2026-04-26 17:26 | 41.26488 | 28.74470 | 332 ft | 8 kts | 359° |
| 2026-04-26 17:26 | 41.26548 | 28.74469 | 332 ft | 10 kts | 359° |
| 2026-04-26 17:26 | 41.26619 | 28.74468 | 332 ft | 9 kts | 359° |
| 2026-04-26 17:26 | 41.26682 | 28.74466 | 332 ft | 8 kts | 359° |
| 2026-04-26 17:27 | 41.26735 | 28.74465 | 332 ft | 7 kts | 359° |
| 2026-04-26 17:27 | 41.26787 | 28.74464 | 332 ft | 8 kts | 359° |
| 2026-04-26 17:27 | 41.26850 | 28.74462 | 332 ft | 9 kts | 360° |
| 2026-04-26 17:27 | 41.26922 | 28.74462 | 332 ft | 9 kts | 360° |
| 2026-04-26 17:28 | 41.26984 | 28.74461 | 332 ft | 8 kts | 359° |
| 2026-04-26 17:28 | 41.27037 | 28.74460 | 332 ft | 7 kts | 359° |
| 2026-04-26 17:28 | 41.27094 | 28.74461 | 332 ft | 9 kts | 10° |
| 2026-04-26 17:28 | 41.27135 | 28.74539 | 332 ft | 14 kts | 85° |
| 2026-04-26 17:29 | 41.27137 | 28.74708 | 332 ft | 22 kts | 89° |
| 2026-04-26 17:29 | 41.27138 | 28.74848 | 332 ft | 22 kts | 90° |
| 2026-04-26 17:29 | 41.27141 | 28.75108 | 332 ft | 20 kts | 86° |
| 2026-04-26 17:29 | 41.27145 | 28.75289 | 332 ft | 15 kts | 90° |
| 2026-04-26 17:30 | 41.27184 | 28.75366 | 332 ft | 9 kts | 13° |
| 2026-04-26 17:30 | 41.27264 | 28.75365 | 332 ft | 17 kts | 358° |
| 2026-04-26 17:30 | 41.27425 | 28.75362 | 332 ft | 25 kts | 359° |
| 2026-04-26 17:30 | 41.27591 | 28.75355 | 332 ft | 21 kts | 358° |
| 2026-04-26 17:31 | 41.27737 | 28.75356 | 332 ft | 20 kts | 359° |
| 2026-04-26 17:31 | 41.27874 | 28.75353 | 332 ft | 19 kts | 359° |
| 2026-04-26 17:31 | 41.28009 | 28.75350 | 332 ft | 21 kts | 359° |
| 2026-04-26 17:31 | 41.28164 | 28.75347 | 332 ft | 21 kts | 359° |
| 2026-04-26 17:32 | 41.28313 | 28.75347 | 332 ft | 20 kts | 0° |
| 2026-04-26 17:32 | 41.28455 | 28.75343 | 332 ft | 19 kts | 359° |
| 2026-04-26 17:32 | 41.28586 | 28.75340 | 332 ft | 18 kts | 359° |
| 2026-04-26 17:32 | 41.28710 | 28.75337 | 332 ft | 17 kts | 359° |
| 2026-04-26 17:33 | 41.28827 | 28.75336 | 332 ft | 16 kts | 360° |
| 2026-04-26 17:33 | 41.28929 | 28.75337 | 332 ft | 11 kts | 12° |
| 2026-04-26 17:33 | 41.28966 | 28.75418 | 332 ft | 10 kts | 89° |
| 2026-04-26 17:34 | 41.28950 | 28.75604 | 332 ft | 6 kts | 144° |
| 2026-04-26 17:34 | 41.28910 | 28.75620 | 332 ft | 5 kts | 182° |
| 2026-04-26 17:34 | 41.28907 | 28.75620 | 332 ft | 0 kts | 182° |
| 2026-04-26 17:34 | 41.28843 | 28.75619 | 332 ft | 22 kts | 181° |
| 2026-04-26 17:35 | 41.28429 | 28.75628 | 332 ft | 95 kts | 180° |
| 2026-04-26 17:35 | 41.27538 | 28.75647 | 333 ft | 157 kts | 179° |
| 2026-04-26 17:35 | 41.26364 | 28.75684 | 870 ft | 169 kts | 181° |
| 2026-04-26 17:35 | 41.25179 | 28.75853 | 1381 ft | 189 kts | 163° |
| 2026-04-26 17:36 | 41.24107 | 28.77002 | 1873 ft | 210 kts | 129° |
| 2026-04-26 17:36 | 41.23078 | 28.78491 | 2360 ft | 230 kts | 144° |
| 2026-04-26 17:36 | 41.21668 | 28.79650 | 2954 ft | 247 kts | 152° |
| 2026-04-26 17:36 | 41.20128 | 28.80803 | 3547 ft | 265 kts | 150° |
| 2026-04-26 17:37 | 41.18435 | 28.81957 | 4190 ft | 281 kts | 159° |
| 2026-04-26 17:37 | 41.16528 | 28.82480 | 5045 ft | 285 kts | 180° |
| 2026-04-26 17:37 | 41.14529 | 28.82369 | 5923 ft | 290 kts | 186° |
| 2026-04-26 17:38 | 41.10464 | 28.81902 | 7773 ft | 296 kts | 185° |
| 2026-04-26 17:38 | 41.08393 | 28.81722 | 8650 ft | 300 kts | 184° |
| 2026-04-26 17:38 | 41.06335 | 28.81573 | 9523 ft | 302 kts | 184° |
| 2026-04-26 17:38 | 41.04227 | 28.81436 | 10316 ft | 308 kts | 184° |
| 2026-04-26 17:39 | 41.02033 | 28.81298 | 10879 ft | 322 kts | 184° |
| 2026-04-26 17:39 | 40.99743 | 28.81153 | 11358 ft | 338 kts | 184° |
| 2026-04-26 17:39 | 40.97372 | 28.81012 | 12029 ft | 346 kts | 182° |
| 2026-04-26 17:39 | 40.94938 | 28.81113 | 12829 ft | 351 kts | 176° |
| 2026-04-26 17:40 | 40.92499 | 28.81434 | 13610 ft | 354 kts | 174° |
| 2026-04-26 17:40 | 40.90885 | 28.81699 | 14113 ft | 356 kts | 174° |
| 2026-04-26 17:40 | 40.87607 | 28.82269 | 15085 ft | 362 kts | 174° |
| 2026-04-26 17:40 | 40.85086 | 28.82699 | 15821 ft | 365 kts | 174° |
| 2026-04-26 17:41 | 40.82586 | 28.83199 | 16542 ft | 369 kts | 167° |
| 2026-04-26 17:41 | 40.80244 | 28.84613 | 17230 ft | 373 kts | 144° |
| 2026-04-26 17:41 | 40.78468 | 28.87079 | 17861 ft | 377 kts | 122° |
| 2026-04-26 17:41 | 40.77410 | 28.90226 | 18493 ft | 378 kts | 103° |
| 2026-04-26 17:42 | 40.76848 | 28.93602 | 19124 ft | 381 kts | 100° |
| 2026-04-26 17:42 | 40.76315 | 28.97048 | 19761 ft | 383 kts | 100° |
| 2026-04-26 17:42 | 40.75776 | 29.00472 | 20355 ft | 387 kts | 100° |
| 2026-04-26 17:42 | 40.75219 | 29.03960 | 20948 ft | 390 kts | 100° |
| 2026-04-26 17:43 | 40.74652 | 29.07492 | 21517 ft | 394 kts | 100° |
| 2026-04-26 17:43 | 40.74085 | 29.11014 | 22097 ft | 396 kts | 100° |
| 2026-04-26 17:43 | 40.73510 | 29.14586 | 22634 ft | 400 kts | 100° |
| 2026-04-26 17:43 | 40.72937 | 29.18135 | 23169 ft | 403 kts | 101° |
| 2026-04-26 17:44 | 40.72353 | 29.21754 | 23700 ft | 406 kts | 101° |
| 2026-04-26 17:44 | 40.71759 | 29.25419 | 24223 ft | 409 kts | 101° |
| 2026-04-26 17:44 | 40.71162 | 29.29105 | 24771 ft | 412 kts | 101° |
| 2026-04-26 17:44 | 40.70565 | 29.32773 | 25259 ft | 415 kts | 101° |
| 2026-04-26 17:45 | 40.69958 | 29.36503 | 25746 ft | 418 kts | 101° |
| 2026-04-26 17:45 | 40.69347 | 29.40249 | 26219 ft | 421 kts | 101° |
| 2026-04-26 17:45 | 40.68731 | 29.44023 | 26683 ft | 423 kts | 101° |
| 2026-04-26 17:45 | 40.68109 | 29.47819 | 26985 ft | 429 kts | 101° |
| 2026-04-26 17:46 | 40.67477 | 29.51674 | 26992 ft | 428 kts | 101° |
| 2026-04-26 17:46 | 40.66854 | 29.55451 | 26996 ft | 424 kts | 101° |
| 2026-04-26 17:46 | 40.66230 | 29.59231 | 26998 ft | 425 kts | 101° |
| 2026-04-26 17:46 | 40.65597 | 29.63063 | 26999 ft | 426 kts | 101° |
| 2026-04-26 17:47 | 40.64975 | 29.66818 | 27001 ft | 426 kts | 101° |
| 2026-04-26 17:47 | 40.64555 | 29.69353 | 27002 ft | 425 kts | 101° |
| 2026-04-26 17:47 | 40.63707 | 29.74453 | 27001 ft | 425 kts | 101° |
| 2026-04-26 17:47 | 40.63078 | 29.78229 | 27001 ft | 426 kts | 101° |
| 2026-04-26 17:48 | 40.62443 | 29.82031 | 27007 ft | 427 kts | 101° |
| 2026-04-26 17:48 | 40.61796 | 29.85902 | 27460 ft | 429 kts | 101° |
| 2026-04-26 17:48 | 40.61156 | 29.89714 | 27982 ft | 430 kts | 101° |
| 2026-04-26 17:48 | 40.60509 | 29.93565 | 28381 ft | 433 kts | 101° |
| 2026-04-26 17:49 | 40.59855 | 29.97450 | 28823 ft | 435 kts | 101° |
| 2026-04-26 17:49 | 40.59192 | 30.01379 | 29263 ft | 437 kts | 101° |
| 2026-04-26 17:49 | 40.58534 | 30.05272 | 29657 ft | 440 kts | 101° |
| 2026-04-26 17:49 | 40.57858 | 30.09263 | 30020 ft | 443 kts | 101° |
| 2026-04-26 17:50 | 40.57191 | 30.13186 | 30417 ft | 445 kts | 101° |
| 2026-04-26 17:50 | 40.56511 | 30.17179 | 30748 ft | 448 kts | 101° |
| 2026-04-26 17:50 | 40.55824 | 30.21207 | 31144 ft | 450 kts | 101° |
| 2026-04-26 17:50 | 40.55132 | 30.25250 | 31478 ft | 453 kts | 101° |
| 2026-04-26 17:51 | 40.54442 | 30.29277 | 31842 ft | 454 kts | 101° |
| 2026-04-26 17:51 | 40.53743 | 30.33337 | 32156 ft | 457 kts | 101° |
| 2026-04-26 17:51 | 40.53043 | 30.37406 | 32497 ft | 459 kts | 101° |
| 2026-04-26 17:51 | 40.52336 | 30.41499 | 32790 ft | 462 kts | 101° |
| 2026-04-26 17:52 | 40.51631 | 30.45573 | 33113 ft | 464 kts | 101° |
| 2026-04-26 17:52 | 40.50909 | 30.49734 | 33464 ft | 465 kts | 101° |
| 2026-04-26 17:52 | 40.50190 | 30.53870 | 34010 ft | 461 kts | 101° |
| 2026-04-26 17:52 | 40.49480 | 30.57940 | 34460 ft | 459 kts | 101° |
| 2026-04-26 17:53 | 40.48774 | 30.61983 | 34773 ft | 459 kts | 100° |
| 2026-04-26 17:53 | 40.48059 | 30.66068 | 35081 ft | 459 kts | 101° |
| 2026-04-26 17:53 | 40.47337 | 30.70188 | 35388 ft | 459 kts | 101° |
| 2026-04-26 17:54 | 40.45907 | 30.78314 | 36043 ft | 458 kts | 101° |
| 2026-04-26 17:54 | 40.45183 | 30.82415 | 36331 ft | 458 kts | 101° |
| 2026-04-26 17:54 | 40.44471 | 30.86440 | 36685 ft | 457 kts | 101° |
| 2026-04-26 17:54 | 40.43744 | 30.90538 | 37031 ft | 457 kts | 101° |
| 2026-04-26 17:55 | 40.43027 | 30.94574 | 37042 ft | 460 kts | 101° |
| 2026-04-26 17:55 | 40.41568 | 31.02755 | 37044 ft | 456 kts | 101° |
| 2026-04-26 17:56 | 40.40118 | 31.10850 | 37040 ft | 458 kts | 101° |
| 2026-04-26 17:57 | 40.37228 | 31.27077 | 37040 ft | 456 kts | 100° |
| 2026-04-26 17:57 | 40.35917 | 31.35157 | 37043 ft | 455 kts | 99° |
| 2026-04-26 17:58 | 40.33315 | 31.51383 | 37062 ft | 454 kts | 100° |
| 2026-04-26 17:59 | 40.31338 | 31.63465 | 37066 ft | 454 kts | 99° |
| 2026-04-26 17:59 | 40.30004 | 31.71543 | 37073 ft | 455 kts | 101° |
| 2026-04-26 18:00 | 40.28655 | 31.79659 | 37071 ft | 454 kts | 101° |
| 2026-04-26 18:00 | 40.27315 | 31.87679 | 37062 ft | 453 kts | 101° |
| 2026-04-26 18:01 | 40.25893 | 31.95764 | 37051 ft | 453 kts | 103° |
| 2026-04-26 18:01 | 40.24198 | 32.03684 | 37037 ft | 453 kts | 104° |
| 2026-04-26 18:02 | 40.22720 | 32.10252 | 37029 ft | 453 kts | 104° |
| 2026-04-26 18:02 | 40.20652 | 32.19471 | 37032 ft | 452 kts | 104° |
| 2026-04-26 18:03 | 40.19741 | 32.23571 | 37036 ft | 454 kts | 104° |
| 2026-04-26 18:03 | 40.18227 | 32.30407 | 37038 ft | 453 kts | 104° |
| 2026-04-26 18:04 | 40.16489 | 32.38276 | 37043 ft | 452 kts | 104° |
| 2026-04-26 18:05 | 40.13863 | 32.50151 | 37046 ft | 451 kts | 104° |
| 2026-04-26 18:05 | 40.12113 | 32.58036 | 37038 ft | 451 kts | 105° |
| 2026-04-26 18:06 | 40.10372 | 32.65851 | 37035 ft | 450 kts | 105° |
| 2026-04-26 18:06 | 40.08623 | 32.73685 | 37026 ft | 450 kts | 105° |
| 2026-04-26 18:07 | 40.06872 | 32.81479 | 37011 ft | 448 kts | 105° |
| 2026-04-26 18:07 | 40.04817 | 32.89158 | 37005 ft | 447 kts | 110° |
| 2026-04-26 18:08 | 40.02531 | 32.96698 | 37011 ft | 447 kts | 110° |
| 2026-04-26 18:08 | 40.00254 | 33.04162 | 37023 ft | 445 kts | 110° |
| 2026-04-26 18:09 | 39.97970 | 33.11734 | 37026 ft | 447 kts | 110° |
| 2026-04-26 18:09 | 39.95727 | 33.19231 | 37034 ft | 447 kts | 110° |
| 2026-04-26 18:10 | 39.93470 | 33.26799 | 37035 ft | 447 kts | 110° |
| 2026-04-26 18:10 | 39.91217 | 33.34348 | 37038 ft | 447 kts | 110° |
| 2026-04-26 18:11 | 39.88966 | 33.41875 | 37037 ft | 447 kts | 110° |
| 2026-04-26 18:11 | 39.86740 | 33.49301 | 37029 ft | 447 kts | 110° |
| 2026-04-26 18:12 | 39.84496 | 33.56768 | 37022 ft | 446 kts | 110° |
| 2026-04-26 18:12 | 39.82394 | 33.64350 | 37019 ft | 446 kts | 105° |
| 2026-04-26 18:13 | 39.80764 | 33.72172 | 37017 ft | 446 kts | 104° |
| 2026-04-26 18:13 | 39.79260 | 33.80006 | 37017 ft | 447 kts | 104° |
| 2026-04-26 18:14 | 39.77731 | 33.87828 | 37010 ft | 447 kts | 104° |
| 2026-04-26 18:14 | 39.75866 | 33.95515 | 37002 ft | 448 kts | 109° |
| 2026-04-26 18:15 | 39.73690 | 34.03081 | 36996 ft | 447 kts | 110° |
| 2026-04-26 18:15 | 39.71478 | 34.10614 | 36999 ft | 449 kts | 110° |
| 2026-04-26 18:16 | 39.69275 | 34.18182 | 37004 ft | 448 kts | 110° |
| 2026-04-26 18:16 | 39.66003 | 34.29533 | 37004 ft | 449 kts | 110° |
| 2026-04-26 18:17 | 39.63823 | 34.37116 | 37008 ft | 450 kts | 110° |
| 2026-04-26 18:17 | 39.61636 | 34.44716 | 37004 ft | 449 kts | 110° |
| 2026-04-26 18:18 | 39.59434 | 34.52346 | 37012 ft | 451 kts | 110° |
| 2026-04-26 18:18 | 39.57252 | 34.59890 | 37020 ft | 450 kts | 111° |
| 2026-04-26 18:19 | 39.55063 | 34.67436 | 37027 ft | 448 kts | 111° |
| 2026-04-26 18:19 | 39.52862 | 34.74998 | 37022 ft | 448 kts | 112° |
| 2026-04-26 18:20 | 39.50657 | 34.82558 | 37021 ft | 447 kts | 112° |
| 2026-04-26 18:20 | 39.48820 | 34.88836 | 37033 ft | 448 kts | 112° |
| 2026-04-26 18:21 | 39.46246 | 34.97612 | 37036 ft | 447 kts | 112° |
| 2026-04-26 18:21 | 39.44031 | 35.05141 | 37036 ft | 448 kts | 112° |
| 2026-04-26 18:22 | 39.41824 | 35.12617 | 37041 ft | 449 kts | 112° |
| 2026-04-26 18:22 | 39.39596 | 35.20152 | 37043 ft | 448 kts | 112° |
| 2026-04-26 18:23 | 39.37411 | 35.27667 | 37044 ft | 447 kts | 112° |
| 2026-04-26 18:23 | 39.35232 | 35.35218 | 37049 ft | 448 kts | 112° |
| 2026-04-26 18:24 | 39.33058 | 35.42725 | 37053 ft | 448 kts | 112° |
| 2026-04-26 18:24 | 39.30855 | 35.50297 | 37056 ft | 449 kts | 112° |
| 2026-04-26 18:25 | 39.28656 | 35.57829 | 37071 ft | 450 kts | 112° |
| 2026-04-26 18:25 | 39.26443 | 35.65376 | 37084 ft | 449 kts | 113° |
| 2026-04-26 18:26 | 39.24245 | 35.72852 | 37099 ft | 448 kts | 114° |
| 2026-04-26 18:26 | 39.22017 | 35.80410 | 37100 ft | 448 kts | 114° |
| 2026-04-26 18:27 | 39.19799 | 35.87908 | 37093 ft | 449 kts | 114° |
| 2026-04-26 18:27 | 39.17585 | 35.95375 | 37081 ft | 448 kts | 114° |
| 2026-04-26 18:28 | 39.15522 | 36.02974 | 37084 ft | 451 kts | 108° |
| 2026-04-26 18:28 | 39.14204 | 36.10891 | 37096 ft | 454 kts | 103° |
| 2026-04-26 18:29 | 39.13204 | 36.18934 | 37103 ft | 456 kts | 101° |
| 2026-04-26 18:29 | 39.12244 | 36.26996 | 37102 ft | 455 kts | 102° |
| 2026-04-26 18:30 | 39.11264 | 36.35001 | 37111 ft | 456 kts | 102° |
| 2026-04-26 18:30 | 39.10253 | 36.43034 | 37105 ft | 456 kts | 102° |
| 2026-04-26 18:31 | 39.09218 | 36.51096 | 37101 ft | 456 kts | 103° |
| 2026-04-26 18:31 | 39.08177 | 36.59114 | 37102 ft | 456 kts | 103° |
| 2026-04-26 18:32 | 39.07126 | 36.67162 | 37133 ft | 456 kts | 103° |
| 2026-04-26 18:32 | 39.06065 | 36.75219 | 37125 ft | 455 kts | 103° |
| 2026-04-26 18:33 | 39.05002 | 36.83257 | 37124 ft | 458 kts | 103° |
| 2026-04-26 18:33 | 39.03931 | 36.91305 | 37130 ft | 457 kts | 104° |
| 2026-04-26 18:34 | 39.02848 | 36.99386 | 37134 ft | 460 kts | 104° |
| 2026-04-26 18:34 | 39.01763 | 37.07447 | 37139 ft | 457 kts | 104° |
| 2026-04-26 18:35 | 39.00668 | 37.15517 | 37147 ft | 461 kts | 104° |
| 2026-04-26 18:35 | 38.99571 | 37.23595 | 37128 ft | 458 kts | 103° |
| 2026-04-26 18:36 | 38.98469 | 37.31652 | 37137 ft | 459 kts | 104° |
| 2026-04-26 18:36 | 38.97369 | 37.39674 | 37134 ft | 460 kts | 103° |
| 2026-04-26 18:37 | 38.96250 | 37.47798 | 37127 ft | 461 kts | 103° |
| 2026-04-26 18:37 | 38.95133 | 37.55842 | 37129 ft | 460 kts | 103° |
| 2026-04-26 18:38 | 38.94004 | 37.63920 | 37132 ft | 462 kts | 104° |
| 2026-04-26 18:38 | 38.92867 | 37.72018 | 37134 ft | 462 kts | 104° |
| 2026-04-26 18:39 | 38.91708 | 37.80242 | 37132 ft | 466 kts | 104° |
| 2026-04-26 18:39 | 38.90562 | 37.88332 | 37137 ft | 464 kts | 104° |
| 2026-04-26 18:40 | 38.89413 | 37.96390 | 37124 ft | 464 kts | 104° |
| 2026-04-26 18:40 | 38.88246 | 38.04526 | 37115 ft | 465 kts | 104° |
| 2026-04-26 18:41 | 38.87072 | 38.12678 | 37124 ft | 464 kts | 104° |
| 2026-04-26 18:41 | 38.85890 | 38.20847 | 37110 ft | 466 kts | 104° |
| 2026-04-26 18:42 | 38.84705 | 38.28996 | 37099 ft | 466 kts | 104° |
| 2026-04-26 18:42 | 38.83516 | 38.37135 | 37104 ft | 467 kts | 104° |
| 2026-04-26 18:43 | 38.82310 | 38.45311 | 37089 ft | 467 kts | 104° |
| 2026-04-26 18:43 | 38.81104 | 38.53459 | 37079 ft | 468 kts | 104° |
| 2026-04-26 18:44 | 38.79889 | 38.61657 | 37090 ft | 469 kts | 104° |
| 2026-04-26 18:44 | 38.78679 | 38.69786 | 37077 ft | 467 kts | 104° |
| 2026-04-26 18:45 | 38.77449 | 38.77976 | 37083 ft | 471 kts | 104° |
| 2026-04-26 18:45 | 38.76206 | 38.86219 | 37084 ft | 470 kts | 104° |
| 2026-04-26 18:46 | 38.74976 | 38.94373 | 37076 ft | 470 kts | 104° |
| 2026-04-26 18:46 | 38.73761 | 39.02564 | 37064 ft | 468 kts | 103° |
| 2026-04-26 18:47 | 38.72743 | 39.09454 | 37079 ft | 471 kts | 104° |
| 2026-04-26 18:47 | 38.71522 | 39.17664 | 37059 ft | 471 kts | 104° |
| 2026-04-26 18:48 | 38.69947 | 39.25720 | 37071 ft | 466 kts | 111° |
| 2026-04-26 18:48 | 38.67787 | 39.33488 | 37070 ft | 467 kts | 114° |
| 2026-04-26 18:49 | 38.65444 | 39.41277 | 37068 ft | 468 kts | 114° |
| 2026-04-26 18:49 | 38.63121 | 39.48991 | 37075 ft | 467 kts | 114° |
| 2026-04-26 18:50 | 38.60820 | 39.56753 | 37091 ft | 469 kts | 113° |
| 2026-04-26 18:50 | 38.58564 | 39.64532 | 37073 ft | 467 kts | 113° |
| 2026-04-26 18:51 | 38.56296 | 39.72385 | 37078 ft | 469 kts | 114° |
| 2026-04-26 18:51 | 38.54044 | 39.80165 | 37067 ft | 469 kts | 114° |
| 2026-04-26 18:52 | 38.51778 | 39.87966 | 37075 ft | 469 kts | 114° |
| 2026-04-26 18:52 | 38.49513 | 39.95746 | 37081 ft | 468 kts | 114° |
| 2026-04-26 18:53 | 38.47232 | 40.03554 | 37071 ft | 470 kts | 114° |
| 2026-04-26 18:53 | 38.44941 | 40.11367 | 37086 ft | 471 kts | 114° |
| 2026-04-26 18:54 | 38.42649 | 40.19165 | 37073 ft | 469 kts | 114° |
| 2026-04-26 18:54 | 38.40345 | 40.26979 | 37079 ft | 471 kts | 114° |
| 2026-04-26 18:55 | 38.38045 | 40.34759 | 37089 ft | 468 kts | 114° |
| 2026-04-26 18:55 | 38.35742 | 40.42520 | 37083 ft | 469 kts | 114° |
| 2026-04-26 18:56 | 38.33445 | 40.50242 | 37083 ft | 468 kts | 114° |
| 2026-04-26 18:56 | 38.31135 | 40.57987 | 37075 ft | 466 kts | 114° |
| 2026-04-26 18:57 | 38.29207 | 40.64427 | 37085 ft | 468 kts | 114° |
| 2026-04-26 18:57 | 38.26505 | 40.73435 | 37072 ft | 466 kts | 115° |
| 2026-04-26 18:58 | 38.24191 | 40.81126 | 37083 ft | 467 kts | 115° |
| 2026-04-26 18:58 | 38.21842 | 40.88806 | 37090 ft | 465 kts | 115° |
| 2026-04-26 18:59 | 38.19457 | 40.96460 | 37082 ft | 465 kts | 115° |
| 2026-04-26 18:59 | 38.17078 | 41.04062 | 37066 ft | 465 kts | 115° |
| 2026-04-26 19:00 | 38.14687 | 41.11694 | 37041 ft | 465 kts | 115° |
| 2026-04-26 19:00 | 38.12320 | 41.19314 | 37073 ft | 466 kts | 115° |
| 2026-04-26 19:01 | 38.09975 | 41.26983 | 37062 ft | 465 kts | 115° |
| 2026-04-26 19:01 | 38.07639 | 41.34625 | 37046 ft | 466 kts | 115° |
| 2026-04-26 19:02 | 38.05281 | 41.42305 | 37062 ft | 467 kts | 115° |
| 2026-04-26 19:02 | 38.03312 | 41.48702 | 37065 ft | 467 kts | 115° |
| 2026-04-26 19:03 | 38.00557 | 41.57614 | 37066 ft | 465 kts | 115° |
| 2026-04-26 19:03 | 37.98228 | 41.65133 | 37064 ft | 467 kts | 116° |
| 2026-04-26 19:04 | 37.95849 | 41.72796 | 37061 ft | 466 kts | 116° |
| 2026-04-26 19:04 | 37.93469 | 41.80445 | 37069 ft | 465 kts | 116° |
| 2026-04-26 19:05 | 37.90759 | 41.92270 | 37081 ft | 474 kts | 103° |
| 2026-04-26 19:06 | 37.90061 | 42.00606 | 37104 ft | 477 kts | 98° |
| 2026-04-26 19:06 | 37.89603 | 42.08962 | 37114 ft | 477 kts | 97° |
| 2026-04-26 19:07 | 37.89144 | 42.17329 | 37129 ft | 478 kts | 98° |
| 2026-04-26 19:07 | 37.88634 | 42.25735 | 37140 ft | 477 kts | 98° |
| 2026-04-26 19:08 | 37.88095 | 42.34067 | 37153 ft | 478 kts | 98° |
| 2026-04-26 19:08 | 37.87534 | 42.42432 | 37172 ft | 477 kts | 98° |
| 2026-04-26 19:09 | 37.86964 | 42.50776 | 37191 ft | 479 kts | 98° |
| 2026-04-26 19:09 | 37.86382 | 42.59170 | 37184 ft | 478 kts | 99° |
| 2026-04-26 19:10 | 37.85058 | 42.67321 | 37180 ft | 469 kts | 116° |
| 2026-04-26 19:10 | 37.82120 | 42.74582 | 37177 ft | 462 kts | 127° |
| 2026-04-26 19:11 | 37.78744 | 42.81500 | 37176 ft | 461 kts | 128° |
| 2026-04-26 19:11 | 37.75345 | 42.88354 | 37188 ft | 460 kts | 128° |
| 2026-04-26 19:12 | 37.71962 | 42.95247 | 37183 ft | 462 kts | 127° |
| 2026-04-26 19:12 | 37.68626 | 43.02111 | 37185 ft | 461 kts | 127° |
| 2026-04-26 19:13 | 37.65293 | 43.08998 | 37188 ft | 462 kts | 127° |
| 2026-04-26 19:13 | 37.61948 | 43.15913 | 37184 ft | 463 kts | 127° |
| 2026-04-26 19:14 | 37.58614 | 43.22801 | 37194 ft | 463 kts | 127° |
| 2026-04-26 19:14 | 37.55262 | 43.29714 | 37196 ft | 463 kts | 127° |
| 2026-04-26 19:15 | 37.51876 | 43.36678 | 37189 ft | 465 kts | 127° |
| 2026-04-26 19:15 | 37.48505 | 43.43604 | 37182 ft | 464 kts | 127° |
| 2026-04-26 19:16 | 37.45130 | 43.50509 | 37183 ft | 468 kts | 127° |
| 2026-04-26 19:16 | 37.41725 | 43.57474 | 37182 ft | 465 kts | 127° |
| 2026-04-26 19:17 | 37.38353 | 43.64364 | 37177 ft | 466 kts | 127° |
| 2026-04-26 19:17 | 37.34917 | 43.71370 | 37158 ft | 468 kts | 127° |
| 2026-04-26 19:18 | 37.31499 | 43.78315 | 37148 ft | 468 kts | 127° |
| 2026-04-26 19:18 | 37.28093 | 43.85224 | 37157 ft | 469 kts | 127° |
| 2026-04-26 19:19 | 37.24218 | 43.91748 | 37154 ft | 458 kts | 142° |
| 2026-04-26 19:19 | 37.21737 | 43.94148 | 37156 ft | 447 kts | 155° |
| 2026-04-26 19:19 | 37.18977 | 43.95868 | 37146 ft | 439 kts | 163° |
| 2026-04-26 19:20 | 37.13297 | 43.98623 | 37149 ft | 437 kts | 166° |
| 2026-04-26 19:20 | 37.07563 | 44.01224 | 37145 ft | 436 kts | 167° |
| 2026-04-26 19:21 | 37.01851 | 44.03823 | 37133 ft | 438 kts | 166° |
| 2026-04-26 19:21 | 36.96107 | 44.06462 | 37128 ft | 437 kts | 166° |
| 2026-04-26 19:22 | 36.90342 | 44.09121 | 37124 ft | 440 kts | 166° |
| 2026-04-26 19:22 | 36.84601 | 44.11780 | 37088 ft | 440 kts | 166° |
| 2026-04-26 19:23 | 36.78887 | 44.14422 | 37087 ft | 439 kts | 166° |
| 2026-04-26 19:23 | 36.73175 | 44.17058 | 37078 ft | 438 kts | 166° |
| 2026-04-26 19:24 | 36.67446 | 44.19694 | 37065 ft | 441 kts | 166° |
| 2026-04-26 19:24 | 36.58774 | 44.23680 | 37068 ft | 440 kts | 166° |
| 2026-04-26 19:25 | 36.53990 | 44.25876 | 37071 ft | 439 kts | 166° |
| 2026-04-26 19:25 | 36.47292 | 44.28943 | 37076 ft | 441 kts | 166° |
| 2026-04-26 19:26 | 36.41556 | 44.31565 | 37077 ft | 440 kts | 166° |
| 2026-04-26 19:26 | 36.35798 | 44.34194 | 37074 ft | 439 kts | 166° |
| 2026-04-26 19:27 | 36.30060 | 44.36807 | 37083 ft | 443 kts | 166° |
| 2026-04-26 19:27 | 36.24292 | 44.39434 | 37073 ft | 439 kts | 166° |
| 2026-04-26 19:28 | 36.18527 | 44.42054 | 37061 ft | 441 kts | 166° |
| 2026-04-26 19:28 | 36.12764 | 44.44669 | 37062 ft | 442 kts | 166° |
| 2026-04-26 19:29 | 36.06941 | 44.47304 | 37043 ft | 444 kts | 166° |
| 2026-04-26 19:29 | 36.01184 | 44.49909 | 37027 ft | 441 kts | 166° |
| 2026-04-26 19:30 | 35.95383 | 44.52525 | 37021 ft | 443 kts | 166° |
| 2026-04-26 19:30 | 35.90562 | 44.54698 | 37021 ft | 443 kts | 166° |
| 2026-04-26 19:31 | 35.83870 | 44.57714 | 37021 ft | 443 kts | 166° |
| 2026-04-26 19:31 | 35.78069 | 44.60320 | 37014 ft | 442 kts | 166° |
| 2026-04-26 19:32 | 35.72285 | 44.62915 | 37023 ft | 444 kts | 167° |
| 2026-04-26 19:32 | 35.66456 | 44.65525 | 37006 ft | 442 kts | 167° |
| 2026-04-26 19:33 | 35.60650 | 44.68125 | 37014 ft | 444 kts | 167° |
| 2026-04-26 19:33 | 35.54814 | 44.70729 | 37019 ft | 446 kts | 167° |
| 2026-04-26 19:34 | 35.49001 | 44.73322 | 37022 ft | 444 kts | 167° |
| 2026-04-26 19:34 | 35.43192 | 44.75909 | 37020 ft | 447 kts | 167° |
| 2026-04-26 19:35 | 35.37329 | 44.78516 | 37017 ft | 444 kts | 167° |
| 2026-04-26 19:35 | 35.31536 | 44.81088 | 37003 ft | 445 kts | 167° |
| 2026-04-26 19:36 | 35.26652 | 44.83250 | 36990 ft | 448 kts | 167° |
| 2026-04-26 19:36 | 35.19841 | 44.86269 | 36993 ft | 444 kts | 167° |
| 2026-04-26 19:37 | 35.14011 | 44.88842 | 36973 ft | 446 kts | 167° |
| 2026-04-26 19:37 | 35.08139 | 44.91428 | 37003 ft | 448 kts | 167° |
| 2026-04-26 19:38 | 35.02312 | 44.93995 | 36985 ft | 448 kts | 167° |
| 2026-04-26 19:38 | 34.96447 | 44.96577 | 36983 ft | 446 kts | 168° |
| 2026-04-26 19:39 | 34.90595 | 44.99149 | 36961 ft | 445 kts | 168° |
| 2026-04-26 19:39 | 34.84723 | 45.01718 | 36965 ft | 450 kts | 168° |
| 2026-04-26 19:40 | 34.78869 | 45.04287 | 36954 ft | 447 kts | 168° |
| 2026-04-26 19:40 | 34.72947 | 45.06874 | 36946 ft | 446 kts | 168° |
| 2026-04-26 19:41 | 34.67074 | 45.09436 | 36948 ft | 449 kts | 168° |
| 2026-04-26 19:41 | 34.62168 | 45.11573 | 36943 ft | 448 kts | 168° |
| 2026-04-26 19:42 | 34.55340 | 45.14547 | 36940 ft | 447 kts | 169° |
| 2026-04-26 19:42 | 34.49421 | 45.16707 | 36937 ft | 440 kts | 177° |
| 2026-04-26 19:43 | 34.43428 | 45.17582 | 36937 ft | 431 kts | 184° |
| 2026-04-26 19:43 | 34.37433 | 45.17935 | 36930 ft | 431 kts | 186° |
| 2026-04-26 19:44 | 34.31421 | 45.18251 | 36938 ft | 430 kts | 186° |
| 2026-04-26 19:44 | 34.25485 | 45.18604 | 36931 ft | 427 kts | 186° |
| 2026-04-26 19:45 | 34.19519 | 45.18983 | 36918 ft | 428 kts | 185° |
| 2026-04-26 19:45 | 34.13541 | 45.19376 | 36905 ft | 429 kts | 186° |
| 2026-04-26 19:46 | 34.07578 | 45.19783 | 36916 ft | 428 kts | 186° |
| 2026-04-26 19:46 | 34.01617 | 45.20184 | 36925 ft | 427 kts | 186° |
| 2026-04-26 19:47 | 33.96650 | 45.20514 | 36915 ft | 432 kts | 186° |
| 2026-04-26 19:47 | 33.89655 | 45.20989 | 36913 ft | 427 kts | 186° |
| 2026-04-26 19:48 | 33.83697 | 45.21396 | 36910 ft | 428 kts | 186° |
| 2026-04-26 19:48 | 33.77754 | 45.21798 | 36909 ft | 425 kts | 186° |
| 2026-04-26 19:49 | 33.71824 | 45.22195 | 36914 ft | 429 kts | 186° |
| 2026-04-26 19:49 | 33.65904 | 45.22594 | 36908 ft | 426 kts | 186° |
| 2026-04-26 19:50 | 33.59961 | 45.22988 | 36899 ft | 430 kts | 186° |
| 2026-04-26 19:50 | 33.54010 | 45.23392 | 36897 ft | 425 kts | 186° |
| 2026-04-26 19:51 | 33.48224 | 45.23777 | 36894 ft | 427 kts | 186° |
| 2026-04-26 19:51 | 33.42319 | 45.24170 | 36897 ft | 428 kts | 186° |
| 2026-04-26 19:52 | 33.36379 | 45.24573 | 36888 ft | 424 kts | 186° |
| 2026-04-26 19:52 | 33.30462 | 45.25776 | 36882 ft | 446 kts | 170° |
| 2026-04-26 19:53 | 33.27604 | 45.27374 | 36878 ft | 462 kts | 158° |
| 2026-04-26 19:53 | 33.24931 | 45.29536 | 36886 ft | 467 kts | 152° |
| 2026-04-26 19:53 | 33.19747 | 45.34357 | 36885 ft | 473 kts | 150° |
| 2026-04-26 19:54 | 33.14605 | 45.39325 | 36893 ft | 474 kts | 149° |
| 2026-04-26 19:54 | 33.09452 | 45.44276 | 36890 ft | 473 kts | 150° |
| 2026-04-26 19:55 | 33.04317 | 45.49151 | 36891 ft | 472 kts | 150° |
| 2026-04-26 19:55 | 32.99138 | 45.54023 | 36888 ft | 472 kts | 150° |
| 2026-04-26 19:56 | 32.93954 | 45.58881 | 36882 ft | 472 kts | 151° |
| 2026-04-26 19:56 | 32.88784 | 45.63717 | 36882 ft | 471 kts | 150° |
| 2026-04-26 19:57 | 32.83594 | 45.68562 | 36883 ft | 473 kts | 151° |
| 2026-04-26 19:57 | 32.78384 | 45.73416 | 36875 ft | 474 kts | 151° |
| 2026-04-26 19:58 | 32.73241 | 45.78218 | 36878 ft | 475 kts | 152° |
| 2026-04-26 19:58 | 32.68026 | 45.83074 | 36887 ft | 474 kts | 151° |
| 2026-04-26 19:59 | 32.62822 | 45.87922 | 36877 ft | 474 kts | 151° |
| 2026-04-26 19:59 | 32.57649 | 45.92724 | 36870 ft | 473 kts | 152° |
| 2026-04-26 20:00 | 32.57489 | 45.92871 | 36871 ft | 473 kts | 151° |
| 2026-04-26 20:01 | 32.54951 | 45.95223 | 36875 ft | 474 kts | 151° |
| 2026-04-26 20:02 | 32.52026 | 45.97928 | 36873 ft | 476 kts | 151° |
| 2026-04-26 20:02 | 32.47695 | 46.01932 | 36870 ft | 475 kts | 151° |
| 2026-04-26 20:03 | 32.41623 | 46.07545 | 36861 ft | 477 kts | 151° |
| 2026-04-26 20:03 | 32.36407 | 46.12359 | 36866 ft | 474 kts | 152° |
| 2026-04-26 20:04 | 32.33233 | 46.15286 | 36869 ft | 473 kts | 151° |
| 2026-04-26 20:04 | 32.28023 | 46.20076 | 36869 ft | 479 kts | 152° |
| 2026-04-26 20:05 | 32.24265 | 46.23531 | 36873 ft | 474 kts | 151° |
| 2026-04-26 20:05 | 32.19006 | 46.28360 | 36871 ft | 477 kts | 152° |
| 2026-04-26 20:06 | 32.16977 | 46.30222 | 36872 ft | 478 kts | 151° |
| 2026-04-26 20:06 | 32.13907 | 46.33039 | 36873 ft | 474 kts | 152° |
| 2026-04-26 20:07 | 32.10735 | 46.35951 | 36871 ft | 467 kts | 152° |
| 2026-04-26 20:07 | 32.05508 | 46.40720 | 36868 ft | 478 kts | 152° |
| 2026-04-26 20:08 | 32.00231 | 46.45527 | 36869 ft | 478 kts | 152° |
| 2026-04-26 20:08 | 31.94985 | 46.50315 | 36869 ft | 475 kts | 152° |
| 2026-04-26 20:09 | 31.89736 | 46.55096 | 36867 ft | 476 kts | 152° |
| 2026-04-26 20:09 | 31.84457 | 46.59890 | 36865 ft | 478 kts | 152° |
| 2026-04-26 20:10 | 31.79226 | 46.64643 | 36871 ft | 475 kts | 152° |
| 2026-04-26 20:10 | 31.74006 | 46.69377 | 36873 ft | 476 kts | 152° |
| 2026-04-26 20:11 | 31.68743 | 46.74131 | 36875 ft | 477 kts | 152° |
| 2026-04-26 20:12 | 31.60896 | 46.81231 | 36869 ft | 474 kts | 152° |
| 2026-04-26 20:12 | 31.55648 | 46.85960 | 36869 ft | 473 kts | 152° |
| 2026-04-26 20:13 | 31.50433 | 46.90650 | 36873 ft | 475 kts | 153° |
| 2026-04-26 20:13 | 31.45160 | 46.95381 | 36873 ft | 479 kts | 152° |
| 2026-04-26 20:14 | 31.39865 | 47.00135 | 36874 ft | 479 kts | 152° |
| 2026-04-26 20:14 | 31.34596 | 47.04865 | 36875 ft | 476 kts | 152° |
| 2026-04-26 20:15 | 31.29325 | 47.09582 | 36872 ft | 479 kts | 152° |
| 2026-04-26 20:15 | 31.24069 | 47.14283 | 36876 ft | 479 kts | 152° |
| 2026-04-26 20:16 | 31.18742 | 47.19035 | 36883 ft | 481 kts | 152° |
| 2026-04-26 20:16 | 31.13480 | 47.23735 | 36885 ft | 474 kts | 153° |
| 2026-04-26 20:17 | 31.08193 | 47.28436 | 36885 ft | 481 kts | 153° |
| 2026-04-26 20:17 | 31.02905 | 47.33130 | 36885 ft | 477 kts | 153° |
| 2026-04-26 20:18 | 30.97585 | 47.37849 | 36885 ft | 479 kts | 153° |
| 2026-04-26 20:18 | 30.92269 | 47.42557 | 36886 ft | 481 kts | 152° |
| 2026-04-26 20:19 | 30.86924 | 47.47284 | 36887 ft | 481 kts | 153° |
| 2026-04-26 20:19 | 30.81610 | 47.52081 | 36888 ft | 484 kts | 150° |
| 2026-04-26 20:20 | 30.76536 | 47.57292 | 36886 ft | 492 kts | 147° |
| 2026-04-26 20:20 | 30.71535 | 47.62691 | 36887 ft | 488 kts | 146° |
| 2026-04-26 20:21 | 30.66514 | 47.68057 | 36890 ft | 491 kts | 147° |
| 2026-04-26 20:21 | 30.61481 | 47.73364 | 36893 ft | 489 kts | 148° |
| 2026-04-26 20:22 | 30.56413 | 47.78648 | 36892 ft | 488 kts | 148° |
| 2026-04-26 20:22 | 30.51340 | 47.83917 | 36890 ft | 489 kts | 148° |
| 2026-04-26 20:23 | 30.46279 | 47.89157 | 36887 ft | 493 kts | 148° |
| 2026-04-26 20:23 | 30.41174 | 47.94442 | 36888 ft | 490 kts | 148° |
| 2026-04-26 20:24 | 30.36093 | 47.99695 | 36886 ft | 489 kts | 148° |
| 2026-04-26 20:24 | 30.31003 | 48.04943 | 36885 ft | 492 kts | 148° |
| 2026-04-26 20:25 | 30.25911 | 48.10188 | 36882 ft | 491 kts | 147° |
| 2026-04-26 20:25 | 30.20783 | 48.15465 | 36888 ft | 493 kts | 147° |
| 2026-04-26 20:26 | 30.15680 | 48.20715 | 36885 ft | 490 kts | 148° |
| 2026-04-26 20:26 | 30.10576 | 48.25956 | 36893 ft | 489 kts | 148° |
| 2026-04-26 20:27 | 30.05474 | 48.31178 | 36897 ft | 490 kts | 148° |
| 2026-04-26 20:27 | 30.00383 | 48.36387 | 36906 ft | 490 kts | 148° |
| 2026-04-26 20:28 | 29.95262 | 48.41614 | 36906 ft | 494 kts | 148° |
| 2026-04-26 20:28 | 29.90105 | 48.46836 | 36905 ft | 493 kts | 148° |
| 2026-04-26 20:29 | 29.84619 | 48.51451 | 36909 ft | 478 kts | 159° |
| 2026-04-26 20:29 | 29.78816 | 48.54991 | 36905 ft | 473 kts | 164° |
| 2026-04-26 20:30 | 29.72862 | 48.58284 | 36911 ft | 473 kts | 165° |
| 2026-04-26 20:30 | 29.66975 | 48.61555 | 36912 ft | 471 kts | 164° |
| 2026-04-26 20:31 | 29.61034 | 48.64914 | 36911 ft | 474 kts | 164° |
| 2026-04-26 20:31 | 29.55146 | 48.68280 | 36912 ft | 471 kts | 164° |
| 2026-04-26 20:32 | 29.49264 | 48.71656 | 36915 ft | 475 kts | 164° |
| 2026-04-26 20:32 | 29.43377 | 48.75035 | 36916 ft | 473 kts | 164° |
| 2026-04-26 20:33 | 29.37457 | 48.78447 | 36916 ft | 472 kts | 164° |
| 2026-04-26 20:33 | 29.31590 | 48.81821 | 36918 ft | 477 kts | 164° |
| 2026-04-26 20:34 | 29.25650 | 48.85237 | 36922 ft | 475 kts | 164° |
| 2026-04-26 20:34 | 29.19714 | 48.88651 | 36920 ft | 474 kts | 163° |
| 2026-04-26 20:35 | 29.13932 | 48.92509 | 36927 ft | 491 kts | 154° |
| 2026-04-26 20:35 | 29.08493 | 48.97355 | 36918 ft | 497 kts | 149° |
| 2026-04-26 20:36 | 29.03274 | 49.02524 | 36919 ft | 498 kts | 147° |
| 2026-04-26 20:36 | 28.98049 | 49.07756 | 36909 ft | 502 kts | 148° |
| 2026-04-26 20:37 | 28.92760 | 49.12975 | 36927 ft | 501 kts | 148° |
| 2026-04-26 20:37 | 28.87459 | 49.18159 | 36899 ft | 499 kts | 148° |
| 2026-04-26 20:38 | 28.82240 | 49.23386 | 36918 ft | 504 kts | 146° |
| 2026-04-26 20:38 | 28.76999 | 49.28786 | 36907 ft | 509 kts | 146° |
| 2026-04-26 20:39 | 28.71773 | 49.34196 | 36915 ft | 507 kts | 146° |
| 2026-04-26 20:39 | 28.66540 | 49.39585 | 36900 ft | 509 kts | 146° |
| 2026-04-26 20:40 | 28.61575 | 49.45379 | 36891 ft | 516 kts | 137° |
| 2026-04-26 20:40 | 28.57247 | 49.51982 | 36890 ft | 526 kts | 129° |
| 2026-04-26 20:41 | 28.53338 | 49.59008 | 36888 ft | 527 kts | 127° |
| 2026-04-26 20:41 | 28.49584 | 49.66162 | 36897 ft | 527 kts | 126° |
| 2026-04-26 20:42 | 28.45810 | 49.73354 | 36895 ft | 529 kts | 127° |
| 2026-04-26 20:42 | 28.41696 | 49.80197 | 36900 ft | 519 kts | 139° |
| 2026-04-26 20:42 | 28.39149 | 49.83024 | 36900 ft | 508 kts | 148° |
| 2026-04-26 20:43 | 28.36393 | 49.85484 | 36915 ft | 504 kts | 153° |
| 2026-04-26 20:43 | 28.30668 | 49.89949 | 36914 ft | 497 kts | 156° |
| 2026-04-26 20:44 | 28.24846 | 49.94253 | 36918 ft | 498 kts | 156° |
| 2026-04-26 20:44 | 28.19048 | 49.98542 | 36921 ft | 501 kts | 156° |
| 2026-04-26 20:45 | 28.13204 | 50.02903 | 36923 ft | 502 kts | 155° |
| 2026-04-26 20:45 | 28.07383 | 50.07291 | 36919 ft | 500 kts | 155° |
| 2026-04-26 20:46 | 28.01555 | 50.11689 | 36920 ft | 502 kts | 155° |
| 2026-04-26 20:46 | 27.95739 | 50.16081 | 36921 ft | 500 kts | 155° |
| 2026-04-26 20:47 | 27.89970 | 50.20432 | 36917 ft | 501 kts | 155° |
| 2026-04-26 20:47 | 27.84141 | 50.24826 | 36917 ft | 498 kts | 155° |
| 2026-04-26 20:48 | 27.78361 | 50.29172 | 36910 ft | 499 kts | 155° |
| 2026-04-26 20:48 | 27.72566 | 50.33521 | 36916 ft | 501 kts | 154° |
| 2026-04-26 20:49 | 27.66808 | 50.37843 | 36909 ft | 497 kts | 154° |
| 2026-04-26 20:49 | 27.61033 | 50.42179 | 36901 ft | 495 kts | 154° |
| 2026-04-26 20:50 | 27.55320 | 50.46536 | 36906 ft | 496 kts | 154° |
| 2026-04-26 20:50 | 27.49573 | 50.50948 | 36898 ft | 498 kts | 153° |
| 2026-04-26 20:51 | 27.43862 | 50.55335 | 36898 ft | 497 kts | 153° |
| 2026-04-26 20:51 | 27.38140 | 50.59718 | 36887 ft | 496 kts | 153° |
| 2026-04-26 20:52 | 27.32466 | 50.64059 | 36892 ft | 497 kts | 153° |
| 2026-04-26 20:52 | 27.26720 | 50.68440 | 36891 ft | 494 kts | 154° |
| 2026-04-26 20:53 | 27.21048 | 50.72760 | 36886 ft | 493 kts | 154° |
| 2026-04-26 20:53 | 27.15420 | 50.77268 | 36882 ft | 500 kts | 148° |
| 2026-04-26 20:54 | 27.10227 | 50.82498 | 36878 ft | 503 kts | 142° |
| 2026-04-26 20:54 | 27.05275 | 50.88062 | 36873 ft | 506 kts | 141° |
| 2026-04-26 20:55 | 27.00576 | 50.93972 | 36870 ft | 511 kts | 132° |
| 2026-04-26 20:55 | 26.96461 | 51.00564 | 36867 ft | 515 kts | 127° |
| 2026-04-26 20:56 | 26.92671 | 51.07322 | 36870 ft | 514 kts | 125° |
| 2026-04-26 20:56 | 26.89007 | 51.14197 | 36865 ft | 515 kts | 121° |
| 2026-04-26 20:57 | 26.86054 | 51.21535 | 36861 ft | 518 kts | 114° |
| 2026-04-26 20:57 | 26.83632 | 51.29075 | 36862 ft | 518 kts | 110° |
| 2026-04-26 20:58 | 26.81373 | 51.36718 | 36861 ft | 518 kts | 109° |
| 2026-04-26 20:58 | 26.79123 | 51.44395 | 36858 ft | 518 kts | 109° |
| 2026-04-26 20:59 | 26.76854 | 51.52052 | 36860 ft | 518 kts | 110° |
| 2026-04-26 20:59 | 26.74583 | 51.59631 | 36850 ft | 517 kts | 110° |
| 2026-04-26 21:00 | 26.72277 | 51.67282 | 36843 ft | 515 kts | 110° |
| 2026-04-26 21:00 | 26.70007 | 51.74848 | 36839 ft | 516 kts | 110° |
| 2026-04-26 21:01 | 26.67728 | 51.82454 | 36836 ft | 516 kts | 110° |
| 2026-04-26 21:01 | 26.65457 | 51.90017 | 36837 ft | 514 kts | 110° |
| 2026-04-26 21:02 | 26.63101 | 51.97561 | 36835 ft | 515 kts | 111° |
| 2026-04-26 21:02 | 26.60634 | 52.05079 | 36844 ft | 514 kts | 112° |
| 2026-04-26 21:03 | 26.58165 | 52.12528 | 36852 ft | 514 kts | 112° |
| 2026-04-26 21:03 | 26.55681 | 52.20045 | 36851 ft | 514 kts | 112° |
| 2026-04-26 21:04 | 26.53227 | 52.27507 | 36854 ft | 514 kts | 112° |
| 2026-04-26 21:04 | 26.50766 | 52.34999 | 36849 ft | 514 kts | 112° |
| 2026-04-26 21:05 | 26.48311 | 52.42457 | 36849 ft | 515 kts | 112° |
| 2026-04-26 21:05 | 26.45841 | 52.49952 | 36849 ft | 513 kts | 112° |
| 2026-04-26 21:06 | 26.43381 | 52.57398 | 36844 ft | 513 kts | 111° |
| 2026-04-26 21:06 | 26.40918 | 52.64849 | 36838 ft | 514 kts | 112° |
| 2026-04-26 21:07 | 26.38442 | 52.72325 | 36830 ft | 512 kts | 112° |
| 2026-04-26 21:07 | 26.35982 | 52.79730 | 36821 ft | 513 kts | 112° |
| 2026-04-26 21:08 | 26.33493 | 52.87204 | 36823 ft | 512 kts | 112° |
| 2026-04-26 21:08 | 26.31008 | 52.94642 | 36819 ft | 513 kts | 112° |
| 2026-04-26 21:09 | 26.28538 | 53.02022 | 36820 ft | 512 kts | 112° |
| 2026-04-26 21:09 | 26.26035 | 53.09488 | 36818 ft | 512 kts | 112° |
| 2026-04-26 21:10 | 26.23556 | 53.16866 | 36816 ft | 511 kts | 112° |
| 2026-04-26 21:10 | 26.21057 | 53.24295 | 36815 ft | 511 kts | 112° |
| 2026-04-26 21:11 | 26.18571 | 53.31676 | 36814 ft | 511 kts | 112° |
| 2026-04-26 21:11 | 26.15930 | 53.38980 | 36645 ft | 506 kts | 115° |
| 2026-04-26 21:11 | 26.14497 | 53.42532 | 36217 ft | 501 kts | 116° |
| 2026-04-26 21:12 | 26.13040 | 53.46033 | 35653 ft | 498 kts | 116° |
| 2026-04-26 21:12 | 26.11574 | 53.49517 | 34969 ft | 499 kts | 116° |
| 2026-04-26 21:12 | 26.10105 | 53.53010 | 34242 ft | 501 kts | 116° |
| 2026-04-26 21:12 | 26.08642 | 53.56506 | 33513 ft | 502 kts | 116° |
| 2026-04-26 21:13 | 26.07171 | 53.60042 | 32965 ft | 498 kts | 115° |
| 2026-04-26 21:13 | 26.05742 | 53.63496 | 32448 ft | 495 kts | 115° |
| 2026-04-26 21:13 | 26.04309 | 53.66977 | 31924 ft | 493 kts | 116° |
| 2026-04-26 21:13 | 26.02886 | 53.70445 | 31363 ft | 492 kts | 116° |
| 2026-04-26 21:14 | 26.01482 | 53.73873 | 30792 ft | 491 kts | 116° |
| 2026-04-26 21:14 | 26.00078 | 53.77314 | 30215 ft | 490 kts | 116° |
| 2026-04-26 21:14 | 25.98691 | 53.80787 | 29625 ft | 488 kts | 115° |
| 2026-04-26 21:14 | 25.97332 | 53.84242 | 29044 ft | 486 kts | 115° |
| 2026-04-26 21:15 | 25.95994 | 53.87672 | 28434 ft | 484 kts | 115° |
| 2026-04-26 21:15 | 25.94669 | 53.91073 | 27847 ft | 481 kts | 115° |
| 2026-04-26 21:15 | 25.93359 | 53.94434 | 27270 ft | 478 kts | 115° |
| 2026-04-26 21:15 | 25.92031 | 53.97834 | 26682 ft | 475 kts | 115° |
| 2026-04-26 21:16 | 25.90690 | 54.01164 | 26097 ft | 471 kts | 117° |
| 2026-04-26 21:16 | 25.89291 | 54.04431 | 25525 ft | 467 kts | 118° |
| 2026-04-26 21:16 | 25.87858 | 54.07663 | 24955 ft | 464 kts | 118° |
| 2026-04-26 21:16 | 25.86419 | 54.10859 | 24383 ft | 460 kts | 119° |
| 2026-04-26 21:17 | 25.85007 | 54.13985 | 23815 ft | 456 kts | 119° |
| 2026-04-26 21:17 | 25.83588 | 54.17129 | 23247 ft | 452 kts | 119° |
| 2026-04-26 21:17 | 25.82215 | 54.20225 | 22702 ft | 449 kts | 117° |
| 2026-04-26 21:17 | 25.80974 | 54.23414 | 22149 ft | 446 kts | 114° |
| 2026-04-26 21:18 | 25.79904 | 54.26601 | 21603 ft | 442 kts | 111° |
| 2026-04-26 21:18 | 25.78919 | 54.29795 | 21062 ft | 438 kts | 110° |
| 2026-04-26 21:18 | 25.77964 | 54.32998 | 20510 ft | 434 kts | 110° |
| 2026-04-26 21:18 | 25.77023 | 54.36178 | 19961 ft | 431 kts | 110° |
| 2026-04-26 21:19 | 25.76093 | 54.39292 | 19427 ft | 426 kts | 110° |
| 2026-04-26 21:19 | 25.75166 | 54.42367 | 18897 ft | 422 kts | 110° |
| 2026-04-26 21:19 | 25.74228 | 54.45443 | 18365 ft | 417 kts | 111° |
| 2026-04-26 21:19 | 25.73304 | 54.48453 | 17838 ft | 413 kts | 111° |
| 2026-04-26 21:20 | 25.72386 | 54.51428 | 17310 ft | 409 kts | 111° |
| 2026-04-26 21:20 | 25.71462 | 54.54404 | 16790 ft | 404 kts | 111° |
| 2026-04-26 21:20 | 25.70548 | 54.57339 | 16272 ft | 399 kts | 111° |
| 2026-04-26 21:20 | 25.69647 | 54.60219 | 15759 ft | 395 kts | 111° |
| 2026-04-26 21:21 | 25.68751 | 54.63054 | 15257 ft | 391 kts | 111° |
| 2026-04-26 21:21 | 25.67849 | 54.65868 | 14755 ft | 386 kts | 112° |
| 2026-04-26 21:21 | 25.66950 | 54.68655 | 14256 ft | 382 kts | 111° |
| 2026-04-26 21:21 | 25.66056 | 54.71422 | 13760 ft | 377 kts | 111° |
| 2026-04-26 21:22 | 25.65179 | 54.74140 | 13269 ft | 373 kts | 111° |
| 2026-04-26 21:22 | 25.64319 | 54.76808 | 12793 ft | 369 kts | 111° |
| 2026-04-26 21:22 | 25.63458 | 54.79480 | 12316 ft | 365 kts | 111° |
| 2026-04-26 21:23 | 25.61811 | 54.84592 | 11923 ft | 340 kts | 111° |
| 2026-04-26 21:23 | 25.61016 | 54.87028 | 11800 ft | 326 kts | 112° |
| 2026-04-26 21:23 | 25.60190 | 54.89285 | 11790 ft | 310 kts | 114° |
| 2026-04-26 21:23 | 25.59349 | 54.91403 | 11790 ft | 297 kts | 115° |
| 2026-04-26 21:24 | 25.58507 | 54.93483 | 11792 ft | 294 kts | 115° |
| 2026-04-26 21:24 | 25.57666 | 54.95578 | 11790 ft | 296 kts | 115° |
| 2026-04-26 21:24 | 25.56840 | 54.97666 | 11669 ft | 296 kts | 115° |
| 2026-04-26 21:24 | 25.56033 | 54.99728 | 11372 ft | 293 kts | 115° |
| 2026-04-26 21:25 | 25.55230 | 55.01788 | 11034 ft | 292 kts | 114° |
| 2026-04-26 21:25 | 25.54375 | 55.03824 | 10800 ft | 288 kts | 118° |
| 2026-04-26 21:25 | 25.53420 | 55.05779 | 10797 ft | 290 kts | 121° |
| 2026-04-26 21:25 | 25.52403 | 55.07726 | 10829 ft | 290 kts | 122° |
| 2026-04-26 21:26 | 25.51380 | 55.09656 | 10890 ft | 289 kts | 122° |
| 2026-04-26 21:26 | 25.50371 | 55.11571 | 10608 ft | 288 kts | 121° |
| 2026-04-26 21:26 | 25.49377 | 55.13472 | 10158 ft | 291 kts | 121° |
| 2026-04-26 21:26 | 25.48369 | 55.15411 | 9804 ft | 288 kts | 121° |
| 2026-04-26 21:27 | 25.47362 | 55.17350 | 9447 ft | 288 kts | 121° |
| 2026-04-26 21:27 | 25.46361 | 55.19252 | 9156 ft | 286 kts | 123° |
| 2026-04-26 21:27 | 25.45195 | 55.21032 | 8801 ft | 285 kts | 130° |
| 2026-04-26 21:27 | 25.43901 | 55.22657 | 8460 ft | 283 kts | 134° |
| 2026-04-26 21:28 | 25.42563 | 55.24244 | 8124 ft | 282 kts | 134° |
| 2026-04-26 21:28 | 25.41228 | 55.25829 | 7797 ft | 281 kts | 133° |
| 2026-04-26 21:28 | 25.39913 | 55.27415 | 7481 ft | 280 kts | 133° |
| 2026-04-26 21:28 | 25.38597 | 55.29023 | 7145 ft | 279 kts | 133° |
| 2026-04-26 21:29 | 25.37301 | 55.30613 | 6842 ft | 278 kts | 132° |
| 2026-04-26 21:29 | 25.36014 | 55.32213 | 6503 ft | 278 kts | 129° |
| 2026-04-26 21:29 | 25.34897 | 55.33930 | 6211 ft | 276 kts | 122° |
| 2026-04-26 21:29 | 25.33881 | 55.35734 | 5904 ft | 275 kts | 121° |
| 2026-04-26 21:30 | 25.32897 | 55.37542 | 5557 ft | 276 kts | 120° |
| 2026-04-26 21:30 | 25.31905 | 55.39360 | 5274 ft | 273 kts | 120° |
| 2026-04-26 21:30 | 25.30917 | 55.41151 | 4973 ft | 272 kts | 121° |
| 2026-04-26 21:30 | 25.29927 | 55.42933 | 4644 ft | 273 kts | 121° |
| 2026-04-26 21:31 | 25.28936 | 55.44712 | 4361 ft | 271 kts | 121° |
| 2026-04-26 21:31 | 25.27941 | 55.46496 | 4052 ft | 270 kts | 121° |
| 2026-04-26 21:31 | 25.26967 | 55.48241 | 3754 ft | 270 kts | 121° |
| 2026-04-26 21:31 | 25.25977 | 55.50020 | 3449 ft | 269 kts | 121° |
| 2026-04-26 21:32 | 25.25012 | 55.51757 | 3150 ft | 269 kts | 121° |
| 2026-04-26 21:32 | 25.24027 | 55.53528 | 2975 ft | 266 kts | 121° |
| 2026-04-26 21:32 | 25.23058 | 55.55270 | 2963 ft | 263 kts | 121° |
| 2026-04-26 21:32 | 25.22113 | 55.56952 | 2962 ft | 257 kts | 123° |
| 2026-04-26 21:33 | 25.20880 | 55.58360 | 2958 ft | 255 kts | 150° |
| 2026-04-26 21:33 | 25.19228 | 55.58963 | 2955 ft | 245 kts | 180° |
| 2026-04-26 21:33 | 25.17581 | 55.58638 | 2701 ft | 231 kts | 207° |
| 2026-04-26 21:33 | 25.16189 | 55.57882 | 2302 ft | 231 kts | 212° |
| 2026-04-26 21:34 | 25.14764 | 55.57045 | 1989 ft | 226 kts | 213° |
| 2026-04-26 21:34 | 25.13638 | 55.55944 | 1952 ft | 205 kts | 242° |
| 2026-04-26 21:34 | 25.13303 | 55.54484 | 1966 ft | 196 kts | 276° |
| 2026-04-26 21:34 | 25.13837 | 55.53149 | 1968 ft | 194 kts | 312° |
| 2026-04-26 21:35 | 25.14953 | 55.52278 | 1971 ft | 197 kts | 326° |
| 2026-04-26 21:35 | 25.16105 | 55.51452 | 1967 ft | 196 kts | 321° |
| 2026-04-26 21:35 | 25.17067 | 55.50407 | 1962 ft | 194 kts | 308° |
| 2026-04-26 21:35 | 25.17873 | 55.49235 | 1954 ft | 186 kts | 305° |
| 2026-04-26 21:36 | 25.18595 | 55.48106 | 1805 ft | 174 kts | 304° |
| 2026-04-26 21:36 | 25.19026 | 55.47395 | 1670 ft | 163 kts | 303° |
| 2026-04-26 21:36 | 25.19805 | 55.46071 | 1403 ft | 144 kts | 302° |
| 2026-04-26 21:36 | 25.20328 | 55.45163 | 1216 ft | 138 kts | 301° |
| 2026-04-26 21:37 | 25.20842 | 55.44265 | 1049 ft | 140 kts | 301° |
| 2026-04-26 21:37 | 25.21369 | 55.43346 | 866 ft | 140 kts | 301° |
| 2026-04-26 21:37 | 25.21891 | 55.42428 | 686 ft | 142 kts | 300° |
| 2026-04-26 21:37 | 25.22419 | 55.41505 | 507 ft | 143 kts | 301° |
| 2026-04-26 21:38 | 25.22969 | 55.40587 | 335 ft | 142 kts | 301° |
| 2026-04-26 21:38 | 25.23495 | 55.39667 | 150 ft | 143 kts | 299° |
| 2026-04-26 21:38 | 25.24006 | 55.38736 | 31 ft | 130 kts | 300° |
| 2026-04-26 21:38 | 25.24385 | 55.38055 | 38 ft | 76 kts | 300° |
| 2026-04-26 21:39 | 25.24576 | 55.37713 | 45 ft | 36 kts | 301° |
| 2026-04-26 21:39 | 25.24698 | 55.37487 | 52 ft | 32 kts | 300° |
| 2026-04-26 21:39 | 25.24781 | 55.37272 | 59 ft | 28 kts | 278° |
| 2026-04-26 21:39 | 25.24786 | 55.37081 | 68 ft | 22 kts | 271° |
| 2026-04-26 21:40 | 25.24806 | 55.36935 | 73 ft | 18 kts | 292° |
| 2026-04-26 21:40 | 25.24859 | 55.36800 | 65 ft | 21 kts | 281° |
| 2026-04-26 21:40 | 25.24917 | 55.36631 | 56 ft | 25 kts | 296° |
| 2026-04-26 21:40 | 25.25010 | 55.36448 | 44 ft | 29 kts | 301° |
| 2026-04-26 21:41 | 25.25108 | 55.36271 | 32 ft | 26 kts | 302° |
| 2026-04-26 21:41 | 25.25201 | 55.36104 | 26 ft | 25 kts | 301° |
| 2026-04-26 21:41 | 25.25296 | 55.35932 | 23 ft | 26 kts | 301° |
| 2026-04-26 21:41 | 25.25388 | 55.35766 | 19 ft | 22 kts | 301° |
| 2026-04-26 21:42 | 25.25465 | 55.35628 | 18 ft | 20 kts | 302° |
| 2026-04-26 21:42 | 25.25543 | 55.35487 | 15 ft | 22 kts | 300° |
| 2026-04-26 21:42 | 25.25623 | 55.35342 | 14 ft | 22 kts | 300° |
| 2026-04-26 21:42 | 25.25701 | 55.35201 | 14 ft | 21 kts | 301° |
| 2026-04-26 21:43 | 25.25771 | 55.35070 | 18 ft | 18 kts | 300° |
| 2026-04-26 21:43 | 25.25829 | 55.34963 | 23 ft | 14 kts | 301° |
| 2026-04-26 21:43 | 25.25904 | 55.34825 | 28 ft | 24 kts | 301° |
| 2026-04-26 21:43 | 25.25990 | 55.34674 | 34 ft | 20 kts | 302° |
| 2026-04-26 21:44 | 25.26059 | 55.34550 | 38 ft | 15 kts | 301° |
| 2026-04-26 21:44 | 25.26095 | 55.34511 | 40 ft | 4 kts | 2° |
| 2026-04-26 21:44 | 25.26127 | 55.34528 | 43 ft | 7 kts | 31° |
| 2026-04-26 21:44 | 25.26160 | 55.34550 | 46 ft | 2 kts | 31° |
| 2026-04-26 21:45 | 25.26171 | 55.34557 | 47 ft | 1 kts | 31° |
| 2026-04-26 21:45 | 25.26173 | 55.34558 | 47 ft | 0 kts | 31° |